Time;durP1;ratioP1;P1;durP2;ratioP2;P2;SDS_P1;SDS_P2;PMS_P1;PMS_P2;Temp;Humidity;BMP_temperature;BMP_pressure;BME280_temperature;BME280_humidity;BME280_pressure;Samples;Min_cycle;Max_cycle;Signal;HPM_P1;HPM_P2
2024/01/22 00:01:43;;;;;;;5.00;3.40;;;7.50;99.90;;;;;;5061591;28;20036;-79
2024/01/22 00:04:10;;;;;;;5.95;3.35;;;7.60;99.90;;;;;;5065289;28;20028;-82
2024/01/22 00:06:39;;;;;;;6.85;3.22;;;7.60;99.90;;;;;;5066642;28;20035;-81
2024/01/22 00:09:06;;;;;;;7.63;3.28;;;7.70;99.90;;;;;;5081109;28;20048;-81
2024/01/22 00:11:32;;;;;;;9.52;4.03;;;7.70;99.90;;;;;;5066127;28;20490;-80
2024/01/22 00:14:00;;;;;;;7.25;3.92;;;7.70;99.90;;;;;;5067874;28;20499;-83
2024/01/22 00:16:26;;;;;;;8.93;3.45;;;7.80;99.90;;;;;;5065393;28;20479;-83
2024/01/22 00:18:53;;;;;;;7.72;4.45;;;7.80;99.90;;;;;;5064504;28;20035;-82
2024/01/22 00:21:19;;;;;;;7.38;3.30;;;7.80;99.90;;;;;;5064214;28;20392;-84
2024/01/22 00:23:46;;;;;;;7.38;4.60;;;7.90;99.90;;;;;;5049640;28;20039;-75
2024/01/22 00:26:14;;;;;;;8.25;3.03;;;7.90;99.90;;;;;;5050980;28;20047;-79
2024/01/22 00:28:41;;;;;;;9.55;3.58;;;7.90;99.90;;;;;;5059411;28;20031;-75
2024/01/22 00:31:08;;;;;;;6.60;3.35;;;8.00;99.90;;;;;;5030272;28;21576;-84
2024/01/22 00:33:34;;;;;;;9.15;4.32;;;8.00;99.90;;;;;;5046301;28;20036;-81
2024/01/22 00:36:03;;;;;;;7.70;4.30;;;8.00;99.90;;;;;;5064416;28;20024;-77
2024/01/22 00:38:29;;;;;;;6.72;3.22;;;8.00;99.90;;;;;;5048694;28;20032;-82
2024/01/22 00:40:56;;;;;;;8.00;3.67;;;8.00;99.90;;;;;;5030023;28;20040;-79
2024/01/22 00:43:22;;;;;;;8.00;3.58;;;8.00;99.90;;;;;;5063642;28;20028;-80
2024/01/22 00:45:50;;;;;;;7.75;3.75;;;8.10;99.90;;;;;;5085107;28;20353;-80
2024/01/22 00:48:16;;;;;;;7.55;3.42;;;8.10;99.90;;;;;;5084178;28;20035;-81
2024/01/22 00:50:44;;;;;;;7.85;2.83;;;8.10;99.90;;;;;;5049858;28;20109;-77
2024/01/22 00:53:10;;;;;;;7.10;3.40;;;8.10;99.90;;;;;;5070327;28;20028;-79
2024/01/22 00:55:37;;;;;;;7.97;3.50;;;8.10;99.90;;;;;;5064165;28;20028;-83
2024/01/22 00:58:03;;;;;;;6.53;3.08;;;8.10;99.90;;;;;;5070993;28;20036;-81
2024/01/22 01:00:29;;;;;;;6.85;3.30;;;8.20;99.90;;;;;;5049508;28;20079;-79
2024/01/22 01:02:56;;;;;;;4.63;2.42;;;8.20;99.90;;;;;;5083168;28;20024;-83
2024/01/22 01:05:22;;;;;;;5.90;3.03;;;8.20;99.90;;;;;;5082677;28;20055;-80
2024/01/22 01:07:48;;;;;;;7.13;2.58;;;8.30;99.90;;;;;;5064885;28;20020;-83
2024/01/22 01:10:15;;;;;;;6.00;3.15;;;8.30;99.90;;;;;;5065055;28;20229;-80
2024/01/22 01:12:41;;;;;;;7.05;3.25;;;8.30;99.90;;;;;;5047208;28;20040;-80
2024/01/22 01:15:08;;;;;;;7.80;3.38;;;8.30;99.90;;;;;;5047810;28;20475;-79
2024/01/22 01:17:35;;;;;;;5.18;3.00;;;8.40;99.90;;;;;;5051340;28;20036;-82
2024/01/22 01:20:03;;;;;;;5.55;2.40;;;8.40;99.90;;;;;;5047813;28;20611;-79
2024/01/22 01:22:31;;;;;;;5.90;2.63;;;8.40;99.90;;;;;;5050492;28;20032;-81
2024/01/22 01:24:57;;;;;;;6.38;2.47;;;8.40;99.90;;;;;;5048324;28;20040;-88
2024/01/22 01:27:24;;;;;;;6.25;2.97;;;8.50;99.90;;;;;;5050852;28;20071;-81
2024/01/22 01:29:52;;;;;;;8.05;2.15;;;8.50;99.90;;;;;;5065821;28;20047;-83
2024/01/22 01:32:18;;;;;;;6.28;2.53;;;8.50;99.90;;;;;;5045732;28;20608;-85
2024/01/22 01:34:45;;;;;;;6.95;3.13;;;8.60;99.90;;;;;;5048325;28;20036;-83
2024/01/22 01:37:11;;;;;;;5.75;2.63;;;8.60;99.90;;;;;;5047487;28;20032;-86
2024/01/22 01:39:37;;;;;;;5.18;2.75;;;8.60;99.90;;;;;;5080066;28;20517;-81
2024/01/22 01:42:04;;;;;;;5.65;2.60;;;8.60;99.90;;;;;;5067406;28;20049;-83
2024/01/22 01:44:51;;;;;;;6.63;1.95;;;8.70;99.90;;;;;;5069745;28;20032;-82
2024/01/22 01:47:18;;;;;;;5.75;2.53;;;8.70;99.90;;;;;;5054658;28;20028;-83
2024/01/22 01:49:46;;;;;;;4.60;2.13;;;8.70;99.90;;;;;;5070964;28;20059;-85
2024/01/22 01:52:13;;;;;;;5.20;2.05;;;8.70;99.90;;;;;;5055227;28;20040;-80
2024/01/22 01:54:42;;;;;;;6.85;2.58;;;8.60;99.90;;;;;;5054516;28;20039;-80
2024/01/22 01:57:09;;;;;;;6.35;2.97;;;8.70;99.90;;;;;;5055227;28;20372;-76
2024/01/22 01:59:37;;;;;;;5.28;2.65;;;8.60;99.90;;;;;;5072077;28;20041;-76
2024/01/22 02:02:03;;;;;;;7.60;2.85;;;8.70;99.90;;;;;;5057383;28;20028;-79
2024/01/22 02:04:30;;;;;;;6.75;2.40;;;8.70;99.90;;;;;;5070676;28;20031;-80
2024/01/22 02:06:57;;;;;;;3.67;2.30;;;8.60;99.90;;;;;;5071418;28;20044;-83
2024/01/22 02:09:50;;;;;;;4.85;2.22;;;8.60;99.90;;;;;;5051945;28;20139;-80
2024/01/22 02:12:17;;;;;;;3.70;2.33;;;8.60;99.90;;;;;;5052820;28;20033;-83
2024/01/22 02:14:44;;;;;;;5.22;2.13;;;8.70;99.90;;;;;;5072906;28;20037;-77
2024/01/22 02:17:11;;;;;;;3.70;1.92;;;8.70;99.90;;;;;;5055475;28;20028;-76
2024/01/22 02:19:38;;;;;;;4.95;2.22;;;8.70;99.90;;;;;;5074539;28;20036;-78
2024/01/22 02:22:05;;;;;;;5.47;2.83;;;8.70;99.90;;;;;;5035530;28;20035;-81
2024/01/22 02:24:31;;;;;;;5.20;1.75;;;8.70;99.90;;;;;;5074976;28;20086;-79
2024/01/22 02:26:58;;;;;;;6.95;2.22;;;8.80;99.90;;;;;;5037145;28;20503;-86
2024/01/22 02:29:24;;;;;;;5.25;2.65;;;8.80;99.90;;;;;;5054440;28;20036;-75
2024/01/22 02:31:52;;;;;;;3.28;1.80;;;8.90;99.90;;;;;;5068968;28;20400;-78
2024/01/22 02:34:19;;;;;;;4.20;1.80;;;8.90;99.90;;;;;;5068212;28;20033;-82
2024/01/22 02:36:46;;;;;;;5.57;1.98;;;8.90;99.90;;;;;;5053716;28;20033;-84
2024/01/22 02:39:13;;;;;;;3.88;1.92;;;9.00;99.90;;;;;;5068799;28;20032;-83
2024/01/22 02:41:40;;;;;;;4.63;2.03;;;9.00;99.90;;;;;;5066640;28;20054;-85
2024/01/22 02:44:06;;;;;;;4.53;2.13;;;9.00;99.90;;;;;;5067635;28;20463;-83
2024/01/22 02:46:32;;;;;;;4.85;1.98;;;9.10;99.90;;;;;;5052334;28;20040;-81
2024/01/22 02:48:59;;;;;;;4.68;1.25;;;9.10;99.90;;;;;;5037447;28;20036;-83
2024/01/22 02:51:25;;;;;;;4.38;1.90;;;9.10;99.90;;;;;;5066066;28;20054;-78
2024/01/22 02:53:53;;;;;;;2.35;1.15;;;9.10;99.90;;;;;;5082250;28;20391;-82
2024/01/22 02:56:20;;;;;;;5.43;1.50;;;9.10;99.90;;;;;;5065598;28;20040;-84
2024/01/22 02:58:47;;;;;;;5.57;2.10;;;9.00;99.90;;;;;;5069314;28;20040;-85
2024/01/22 03:01:13;;;;;;;6.65;1.75;;;9.00;99.90;;;;;;5055894;28;20036;-82
2024/01/22 03:03:42;;;;;;;6.22;1.63;;;9.00;99.90;;;;;;5052477;28;20024;-85
2024/01/22 03:06:08;;;;;;;7.10;1.55;;;8.90;99.90;;;;;;5088995;28;20021;-85
2024/01/22 03:08:35;;;;;;;3.70;1.60;;;8.90;99.90;;;;;;5074314;28;20039;-84
2024/01/22 03:11:02;;;;;;;5.43;1.77;;;8.80;99.90;;;;;;5066785;28;20036;-84
2024/01/22 03:13:28;;;;;;;4.55;1.50;;;8.80;99.90;;;;;;5069601;28;20069;-82
2024/01/22 03:15:55;;;;;;;2.35;1.38;;;8.80;99.90;;;;;;5070125;28;20028;-85
2024/01/22 03:18:21;;;;;;;4.32;1.67;;;8.80;99.90;;;;;;5075432;28;20040;-84
2024/01/22 03:20:47;;;;;;;2.83;1.80;;;8.70;99.90;;;;;;5071254;28;20036;-82
2024/01/22 03:23:13;;;;;;;5.47;1.55;;;8.70;99.90;;;;;;5059037;28;20032;-82
2024/01/22 03:25:40;;;;;;;3.40;1.90;;;8.70;99.90;;;;;;5082743;28;20036;-84
2024/01/22 03:28:06;;;;;;;3.20;1.85;;;8.80;99.90;;;;;;5068929;28;20028;-82
2024/01/22 03:30:32;;;;;;;3.22;1.70;;;8.80;99.90;;;;;;5066588;28;20035;-80
2024/01/22 03:32:59;;;;;;;3.78;1.63;;;8.80;99.90;;;;;;5066773;28;20024;-81
2024/01/22 03:35:26;;;;;;;2.60;1.77;;;8.80;99.90;;;;;;5049981;28;20111;-83
2024/01/22 03:37:52;;;;;;;2.55;1.70;;;8.90;99.90;;;;;;5048866;28;20040;-83
2024/01/22 03:40:18;;;;;;;5.82;1.52;;;8.90;99.90;;;;;;5065307;28;20036;-80
2024/01/22 03:42:45;;;;;;;3.92;1.67;;;8.90;99.90;;;;;;5067063;28;20029;-82
2024/01/22 03:45:11;;;;;;;5.43;1.45;;;8.90;99.90;;;;;;5051795;28;20048;-82
2024/01/22 03:47:37;;;;;;;3.65;1.52;;;8.90;99.90;;;;;;5066907;28;20040;-81
2024/01/22 03:50:06;;;;;;;4.78;1.58;;;8.90;99.90;;;;;;5098147;27;20033;-81
2024/01/22 03:52:32;;;;;;;3.53;1.70;;;9.00;99.90;;;;;;5028382;28;20040;-82
2024/01/22 03:54:59;;;;;;;4.15;1.80;;;8.90;99.90;;;;;;5047552;28;20059;-82
2024/01/22 03:57:25;;;;;;;3.35;1.65;;;8.90;99.90;;;;;;5065449;28;20039;-82
2024/01/22 03:59:51;;;;;;;3.45;1.60;;;8.90;99.90;;;;;;5068415;28;20035;-81
2024/01/22 04:02:18;;;;;;;4.93;2.20;;;8.90;99.90;;;;;;5062539;28;20399;-80
2024/01/22 04:04:44;;;;;;;2.38;1.85;;;8.90;99.90;;;;;;5028013;28;20028;-81
2024/01/22 04:07:11;;;;;;;4.05;2.25;;;8.90;99.90;;;;;;5071646;28;20032;-84
2024/01/22 04:09:37;;;;;;;5.82;2.10;;;8.90;99.90;;;;;;5069541;28;20034;-83
2024/01/22 04:12:03;;;;;;;5.63;2.80;;;8.90;99.90;;;;;;5064723;28;20063;-80
2024/01/22 04:14:30;;;;;;;4.22;2.38;;;8.90;99.90;;;;;;5048096;28;20171;-80
2024/01/22 04:16:56;;;;;;;2.78;1.60;;;8.90;99.90;;;;;;5066150;28;20033;-81
2024/01/22 04:19:22;;;;;;;3.05;1.55;;;8.90;99.90;;;;;;5053398;28;20498;-82
2024/01/22 04:21:48;;;;;;;3.08;1.88;;;8.90;99.90;;;;;;5050109;28;20043;-82
2024/01/22 04:24:15;;;;;;;2.30;1.70;;;8.90;99.90;;;;;;5048695;28;20108;-82
2024/01/22 04:26:41;;;;;;;3.30;1.45;;;8.90;99.90;;;;;;5050192;28;20036;-83
2024/01/22 04:29:08;;;;;;;2.95;1.85;;;8.90;99.90;;;;;;5049183;28;20047;-82
2024/01/22 04:31:36;;;;;;;3.10;1.40;;;9.00;99.90;;;;;;5079105;28;20039;-83
2024/01/22 04:34:02;;;;;;;3.53;1.50;;;9.00;99.90;;;;;;5081591;28;20032;-84
2024/01/22 04:36:28;;;;;;;4.07;1.50;;;9.00;99.90;;;;;;5064860;28;20040;-78
2024/01/22 04:38:56;;;;;;;4.65;1.73;;;9.00;99.90;;;;;;5066259;28;20020;-83
2024/01/22 04:41:22;;;;;;;3.53;1.67;;;9.00;99.90;;;;;;5045737;28;20079;-83
2024/01/22 04:43:49;;;;;;;2.55;1.05;;;9.10;99.90;;;;;;5065533;28;20028;-83
2024/01/22 04:46:15;;;;;;;3.35;1.50;;;9.10;99.90;;;;;;5066553;28;20024;-83
2024/01/22 04:48:41;;;;;;;4.90;1.70;;;9.10;99.90;;;;;;5068182;28;20036;-84
2024/01/22 04:51:08;;;;;;;3.03;1.40;;;9.20;99.90;;;;;;5067810;28;20039;-83
2024/01/22 04:53:35;;;;;;;2.65;1.20;;;9.20;99.90;;;;;;5050231;28;20043;-80
2024/01/22 04:56:01;;;;;;;3.30;1.30;;;9.20;99.90;;;;;;5067542;28;20029;-81
2024/01/22 04:58:28;;;;;;;2.63;1.10;;;9.30;99.90;;;;;;5051872;28;20044;-82
2024/01/22 05:00:54;;;;;;;2.38;0.90;;;9.30;99.90;;;;;;5048438;28;20028;-82
2024/01/22 05:03:20;;;;;;;3.97;1.65;;;9.30;99.90;;;;;;5054295;28;20025;-83
2024/01/22 05:05:47;;;;;;;1.73;1.00;;;9.30;99.90;;;;;;5066305;28;20871;-82
2024/01/22 05:08:13;;;;;;;3.70;1.45;;;9.40;99.90;;;;;;5049004;28;20029;-81
2024/01/22 05:10:39;;;;;;;5.30;1.27;;;9.30;99.90;;;;;;5087566;28;20036;-84
2024/01/22 05:13:06;;;;;;;3.67;1.40;;;9.40;99.90;;;;;;5031380;28;20498;-82
2024/01/22 05:15:32;;;;;;;1.98;1.40;;;9.40;99.90;;;;;;5065321;28;20471;-80
2024/01/22 05:17:58;;;;;;;2.30;1.23;;;9.40;99.90;;;;;;5068269;28;20061;-79
2024/01/22 05:20:24;;;;;;;3.17;1.40;;;9.40;99.90;;;;;;5069784;28;20040;-82
2024/01/22 05:22:51;;;;;;;3.63;1.27;;;9.50;99.90;;;;;;5072135;28;20029;-80
2024/01/22 05:25:17;;;;;;;4.80;1.55;;;9.50;99.90;;;;;;5038682;28;20040;-82
2024/01/22 05:27:46;;;;;;;2.03;1.23;;;9.50;99.90;;;;;;5106881;27;20043;-79
2024/01/22 05:30:13;;;;;;;2.70;1.20;;;9.50;99.90;;;;;;5055396;28;20737;-80
2024/01/22 05:32:40;;;;;;;2.88;0.80;;;9.50;99.90;;;;;;5057337;28;20040;-80
2024/01/22 05:35:06;;;;;;;4.18;1.30;;;9.50;99.90;;;;;;5055071;28;20394;-81
2024/01/22 05:37:33;;;;;;;3.58;1.27;;;9.50;99.90;;;;;;5056865;28;20035;-80
2024/01/22 05:39:59;;;;;;;3.45;1.20;;;9.60;99.90;;;;;;5053608;28;20040;-83
2024/01/22 05:42:25;;;;;;;3.40;0.80;;;9.60;99.90;;;;;;5039681;28;20257;-85
2024/01/22 05:44:52;;;;;;;2.65;1.15;;;9.60;99.90;;;;;;5074788;28;20016;-82
2024/01/22 05:47:19;;;;;;;3.55;1.15;;;9.60;99.90;;;;;;5055861;28;20037;-82
2024/01/22 05:49:45;;;;;;;3.30;1.33;;;9.70;99.90;;;;;;5073628;28;20032;-79
2024/01/22 05:52:11;;;;;;;4.68;0.98;;;9.70;99.90;;;;;;5058901;28;20037;-81
2024/01/22 05:54:38;;;;;;;3.28;0.80;;;9.70;99.90;;;;;;5055941;28;20668;-81
2024/01/22 05:57:04;;;;;;;2.78;1.00;;;9.80;99.90;;;;;;5084572;28;20032;-82
2024/01/22 05:59:31;;;;;;;2.28;1.10;;;9.80;99.90;;;;;;5082721;28;20053;-81
2024/01/22 06:01:57;;;;;;;3.53;1.30;;;9.80;99.90;;;;;;5064909;28;20028;-79
2024/01/22 06:04:24;;;;;;;2.60;1.20;;;9.90;99.90;;;;;;5051362;28;20051;-80
2024/01/22 06:06:50;;;;;;;3.13;1.00;;;9.90;99.90;;;;;;5065267;28;20338;-80
2024/01/22 06:09:16;;;;;;;2.20;0.77;;;9.90;99.90;;;;;;5066726;28;20041;-79
2024/01/22 06:11:43;;;;;;;2.78;1.02;;;9.90;99.90;;;;;;5049122;28;20065;-82
2024/01/22 06:14:09;;;;;;;2.60;0.70;;;10.00;99.90;;;;;;5064693;28;20078;-81
2024/01/22 06:16:36;;;;;;;2.45;0.60;;;10.00;99.90;;;;;;5067712;28;20048;-80
2024/01/22 06:19:02;;;;;;;4.05;1.23;;;10.00;99.90;;;;;;5081737;28;20028;-79
2024/01/22 06:21:29;;;;;;;1.98;0.80;;;10.10;99.90;;;;;;5066616;28;20072;-79
2024/01/22 06:23:57;;;;;;;2.95;0.80;;;10.10;99.90;;;;;;5066861;28;20047;-80
2024/01/22 06:26:24;;;;;;;4.85;0.70;;;10.10;99.90;;;;;;5048072;28;20029;-78
2024/01/22 06:28:52;;;;;;;5.28;0.70;;;10.20;99.90;;;;;;5068572;28;20028;-80
2024/01/22 06:31:19;;;;;;;4.18;0.70;;;10.30;99.90;;;;;;5065469;28;20032;-81
2024/01/22 06:33:46;;;;;;;3.15;0.88;;;10.30;99.90;;;;;;5059685;28;20486;-81
2024/01/22 06:36:15;;;;;;;5.80;0.60;;;10.40;99.90;;;;;;5052849;28;20475;-78
2024/01/22 06:38:42;;;;;;;2.58;0.70;;;10.40;99.90;;;;;;5067952;28;20774;-80
2024/01/22 06:41:12;;;;;;;3.60;0.60;;;10.40;99.90;;;;;;5070691;28;20035;-80
2024/01/22 06:43:39;;;;;;;4.03;0.57;;;10.50;99.90;;;;;;5047126;28;20027;-81
2024/01/22 06:46:05;;;;;;;3.33;0.82;;;10.50;99.90;;;;;;5054607;28;20035;-81
2024/01/22 06:48:32;;;;;;;3.90;0.70;;;10.50;99.90;;;;;;5074318;28;20032;-83
2024/01/22 06:50:58;;;;;;;2.97;0.63;;;10.50;99.90;;;;;;5050029;28;20033;-79
2024/01/22 06:53:24;;;;;;;3.88;0.65;;;10.50;99.90;;;;;;5049798;28;20032;-81
2024/01/22 06:55:51;;;;;;;4.50;0.65;;;10.50;99.90;;;;;;5050336;28;20032;-81
2024/01/22 06:58:17;;;;;;;5.78;0.98;;;10.50;99.90;;;;;;5069750;28;20032;-84
2024/01/22 07:00:44;;;;;;;3.20;0.63;;;10.50;99.90;;;;;;5085902;28;20044;-79
2024/01/22 07:03:12;;;;;;;3.55;0.70;;;10.50;99.90;;;;;;5072581;28;20029;-83
2024/01/22 07:05:38;;;;;;;5.25;1.02;;;10.50;99.90;;;;;;5050224;28;20453;-81
2024/01/22 07:08:05;;;;;;;4.22;0.70;;;10.50;99.90;;;;;;5068134;28;20032;-81
2024/01/22 07:10:32;;;;;;;4.22;0.80;;;10.50;99.90;;;;;;5067918;28;20032;-84
2024/01/22 07:12:59;;;;;;;5.22;0.63;;;10.50;99.90;;;;;;5037893;28;20035;-84
2024/01/22 07:15:25;;;;;;;3.92;0.60;;;10.50;99.90;;;;;;5054980;28;20517;-82
2024/01/22 07:17:51;;;;;;;5.25;1.27;;;10.40;99.90;;;;;;5050798;28;20036;-83
2024/01/22 07:20:18;;;;;;;2.65;0.70;;;10.40;99.90;;;;;;5068680;28;20099;-85
2024/01/22 07:22:45;;;;;;;4.22;0.60;;;10.40;99.90;;;;;;5050651;28;20024;-82
2024/01/22 07:25:12;;;;;;;4.80;0.50;;;10.40;99.90;;;;;;5068925;28;20029;-83
2024/01/22 07:27:39;;;;;;;3.72;0.77;;;10.40;99.90;;;;;;5071370;28;20047;-85
2024/01/22 07:30:08;;;;;;;4.07;0.70;;;10.40;99.90;;;;;;5075421;28;20482;-82
2024/01/22 07:32:36;;;;;;;9.27;1.10;;;10.40;99.90;;;;;;5068150;28;20063;-79
2024/01/22 07:35:07;;;;;;;7.78;0.70;;;10.40;99.90;;;;;;5084451;28;20047;-84
2024/01/22 07:37:36;;;;;;;8.65;2.63;;;10.40;99.90;;;;;;5052488;28;20035;-80
2024/01/22 07:40:04;;;;;;;8.40;2.38;;;10.40;99.90;;;;;;5050942;28;20044;-82
2024/01/22 07:42:32;;;;;;;11.80;2.30;;;10.40;99.90;;;;;;5086579;28;20036;-83
2024/01/22 07:45:01;;;;;;;13.02;2.15;;;10.50;99.90;;;;;;5050107;28;20135;-81
2024/01/22 07:47:27;;;;;;;7.68;1.02;;;10.50;99.90;;;;;;5049938;28;20044;-81
2024/01/22 07:49:54;;;;;;;12.43;2.10;;;10.50;99.90;;;;;;5053151;28;20039;-81
2024/01/22 07:52:24;;;;;;;11.02;1.83;;;10.50;99.90;;;;;;5069062;28;20036;-80
2024/01/22 07:54:50;;;;;;;9.07;1.20;;;10.50;99.90;;;;;;5051989;28;20040;-82
2024/01/22 07:57:17;;;;;;;11.13;1.90;;;10.50;99.90;;;;;;5054829;28;20031;-83
2024/01/22 07:59:46;;;;;;;9.35;1.98;;;10.50;99.90;;;;;;5087732;28;20036;-81
2024/01/22 08:02:13;;;;;;;10.75;1.67;;;10.50;99.90;;;;;;5055133;28;20051;-82
2024/01/22 08:04:39;;;;;;;9.32;1.92;;;10.50;99.90;;;;;;5071063;28;20057;-83
2024/01/22 08:07:06;;;;;;;10.10;1.08;;;10.50;99.90;;;;;;5071244;28;20032;-83
2024/01/22 08:09:33;;;;;;;5.78;1.40;;;10.60;99.90;;;;;;5069093;28;20043;-83
2024/01/22 08:12:00;;;;;;;13.65;3.17;;;10.60;99.90;;;;;;5070188;28;20044;-80
2024/01/22 08:14:26;;;;;;;8.63;1.45;;;10.60;99.90;;;;;;5069543;28;20044;-82
2024/01/22 08:16:53;;;;;;;11.73;1.63;;;10.60;99.90;;;;;;5067493;28;20495;-83
2024/01/22 08:19:19;;;;;;;12.48;1.77;;;10.60;99.90;;;;;;5068229;28;20039;-83
2024/01/22 08:21:45;;;;;;;13.80;1.42;;;10.70;99.90;;;;;;5052658;28;20042;-83
2024/01/22 08:24:12;;;;;;;13.20;2.15;;;10.70;99.90;;;;;;5071478;28;20493;-84
2024/01/22 08:26:38;;;;;;;11.52;1.60;;;10.70;99.90;;;;;;5082642;28;20036;-83
2024/01/22 08:29:04;;;;;;;13.65;1.80;;;10.70;99.90;;;;;;5081088;28;20032;-83
2024/01/22 08:31:31;;;;;;;16.52;2.13;;;10.70;99.90;;;;;;5065786;28;20025;-82
2024/01/22 08:33:57;;;;;;;14.35;2.03;;;10.70;99.90;;;;;;5064724;28;20039;-85
2024/01/22 08:36:23;;;;;;;11.63;1.63;;;10.70;99.90;;;;;;5067660;28;20028;-84
2024/01/22 08:38:50;;;;;;;15.10;1.98;;;10.70;99.90;;;;;;5103094;27;20041;-82
2024/01/22 08:41:16;;;;;;;10.40;2.03;;;10.70;99.90;;;;;;5084269;28;20036;-82
2024/01/22 08:43:43;;;;;;;12.88;2.33;;;10.70;99.90;;;;;;5069263;28;20036;-83
2024/01/22 08:46:10;;;;;;;13.20;2.50;;;10.70;99.90;;;;;;5067213;28;20434;-83
2024/01/22 08:48:36;;;;;;;11.93;1.85;;;10.70;99.90;;;;;;5052628;28;20462;-84
2024/01/22 08:51:03;;;;;;;14.25;3.25;;;10.70;99.90;;;;;;5066437;28;20431;-82
2024/01/22 08:53:29;;;;;;;8.35;2.20;;;10.70;99.90;;;;;;5071467;28;20465;-82
2024/01/22 08:55:55;;;;;;;11.85;2.55;;;10.80;99.90;;;;;;5053136;28;20033;-82
2024/01/22 08:58:22;;;;;;;10.93;2.08;;;10.80;99.90;;;;;;5069719;28;20035;-83
2024/01/22 09:00:48;;;;;;;10.13;1.70;;;10.80;99.90;;;;;;5067862;28;20410;-85
2024/01/22 09:03:14;;;;;;;12.45;2.20;;;10.80;99.90;;;;;;5071134;28;20398;-82
2024/01/22 09:05:41;;;;;;;16.90;2.67;;;10.90;99.90;;;;;;5055170;28;20565;-80
2024/01/22 09:08:07;;;;;;;9.35;1.75;;;10.80;99.90;;;;;;5069565;28;20533;-85
2024/01/22 09:10:33;;;;;;;17.50;2.65;;;10.90;99.90;;;;;;5054253;28;20633;-81
2024/01/22 09:13:00;;;;;;;12.98;2.30;;;10.80;99.90;;;;;;5072032;28;20239;-84
2024/01/22 09:15:26;;;;;;;16.58;3.45;;;10.80;99.90;;;;;;5070233;28;20040;-83
2024/01/22 09:17:52;;;;;;;16.17;2.38;;;10.80;99.90;;;;;;5067903;28;20028;-82
2024/01/22 09:20:19;;;;;;;15.00;2.70;;;10.80;99.90;;;;;;5052075;28;20075;-83
2024/01/22 09:22:45;;;;;;;17.00;3.03;;;10.80;99.90;;;;;;5068646;28;20043;-80
2024/01/22 09:25:12;;;;;;;17.30;3.58;;;10.80;99.90;;;;;;5072996;28;20032;-82
2024/01/22 09:27:38;;;;;;;13.60;2.75;;;10.80;99.90;;;;;;5067893;28;20032;-84
2024/01/22 09:30:05;;;;;;;15.82;2.95;;;10.80;99.90;;;;;;5050604;28;20043;-82
2024/01/22 09:32:31;;;;;;;13.30;4.10;;;10.80;99.90;;;;;;5084650;28;20352;-83
2024/01/22 09:34:58;;;;;;;25.38;6.10;;;10.80;99.90;;;;;;5055641;28;20024;-84
2024/01/22 09:37:25;;;;;;;22.35;5.43;;;10.80;99.90;;;;;;5070401;28;20036;-82
2024/01/22 09:39:51;;;;;;;17.83;4.78;;;10.80;99.90;;;;;;5071394;28;20040;-83
2024/01/22 09:42:18;;;;;;;20.35;3.83;;;10.80;99.90;;;;;;5053724;28;20511;-83
2024/01/22 09:44:46;;;;;;;15.45;3.38;;;10.70;99.90;;;;;;5071645;28;20110;-84
2024/01/22 09:47:13;;;;;;;14.60;3.25;;;10.70;99.90;;;;;;5075694;28;20503;-83
2024/01/22 09:49:39;;;;;;;11.20;2.38;;;10.60;99.90;;;;;;5061258;28;20346;-88
2024/01/22 09:52:08;;;;;;;13.27;2.38;;;10.60;99.90;;;;;;5077037;28;20391;-85
2024/01/22 09:54:35;;;;;;;15.65;2.33;;;10.50;99.90;;;;;;5071819;28;20487;-83
2024/01/22 09:57:07;;;;;;;18.05;1.98;;;10.40;99.90;;;;;;5070663;28;20040;-83
2024/01/22 09:59:34;;;;;;;17.80;2.70;;;10.30;99.90;;;;;;5066887;28;20040;-84
2024/01/22 10:02:02;;;;;;;18.45;2.78;;;10.20;99.90;;;;;;5072835;28;20039;-84
2024/01/22 10:04:28;;;;;;;17.35;1.85;;;10.00;99.90;;;;;;5072155;28;20048;-83
2024/01/22 10:06:55;;;;;;;13.52;1.80;;;9.90;99.90;;;;;;5071531;28;20032;-87
2024/01/22 10:09:22;;;;;;;14.32;1.70;;;9.80;99.90;;;;;;5037198;28;20379;-83
2024/01/22 10:11:48;;;;;;;13.63;2.10;;;9.70;99.90;;;;;;5071222;28;20043;-84
2024/01/22 10:14:14;;;;;;;12.00;1.85;;;9.70;99.90;;;;;;5056744;28;20040;-82
2024/01/22 10:16:41;;;;;;;22.15;2.50;;;9.60;99.90;;;;;;5058718;28;20463;-83
2024/01/22 10:19:09;;;;;;;18.05;2.63;;;9.60;99.90;;;;;;5058375;28;20040;-81
2024/01/22 10:21:36;;;;;;;18.05;1.80;;;9.60;99.90;;;;;;5072269;28;20448;-81
2024/01/22 10:24:04;;;;;;;19.77;3.03;;;9.50;99.90;;;;;;5055921;28;20040;-81
2024/01/22 10:26:31;;;;;;;19.50;2.80;;;9.60;99.90;;;;;;5051636;28;20391;-81
2024/01/22 10:29:19;;;;;;;17.13;2.33;;;9.50;99.90;;;;;;5074398;28;20024;-82
2024/01/22 10:31:57;;;;;;;16.73;2.53;;;9.60;99.90;;;;;;5085849;28;20094;-81
2024/01/22 10:34:31;;;;;;;20.77;3.28;;;9.50;99.90;;;;;;5073945;28;20028;-84
2024/01/22 10:37:04;;;;;;;17.15;2.75;;;9.60;99.90;;;;;;5073858;28;20078;-82
2024/01/22 10:39:31;;;;;;;13.80;2.13;;;9.60;99.90;;;;;;5057723;28;20311;-79
2024/01/22 10:42:13;;;;;;;17.25;2.95;;;9.60;99.90;;;;;;5071328;28;20044;-84
2024/01/22 10:44:44;;;;;;;12.20;2.25;;;9.70;99.90;;;;;;5049883;28;20036;-79
2024/01/22 10:47:14;;;;;;;20.80;2.88;;;9.70;99.90;;;;;;5053678;28;20049;-82
2024/01/22 10:49:45;;;;;;;17.08;2.47;;;9.70;99.90;;;;;;5052070;28;20043;-80
2024/01/22 10:52:13;;;;;;;23.52;4.25;;;9.70;99.90;;;;;;5068530;28;20059;-81
2024/01/22 10:54:40;;;;;;;17.77;2.67;;;9.70;99.90;;;;;;5053731;28;20449;-81
2024/01/22 10:57:28;;;;;;;17.65;2.45;;;9.70;99.90;;;;;;5054262;28;20043;-82
2024/01/22 10:59:59;;;;;;;20.17;2.42;;;9.70;99.90;;;;;;5059115;28;20479;-83
2024/01/22 11:02:32;;;;;;;17.45;2.33;;;9.60;99.90;;;;;;5046400;28;21307;-82
2024/01/22 11:05:13;;;;;;;17.63;1.90;;;9.60;99.90;;;;;;5056638;28;20040;-81
2024/01/22 11:07:40;;;;;;;20.48;2.72;;;9.60;99.90;;;;;;5055173;28;20028;-82
2024/01/22 11:10:10;;;;;;;24.13;2.50;;;9.50;99.90;;;;;;5074949;28;20478;-82
2024/01/22 11:12:45;;;;;;;21.95;2.80;;;9.50;99.90;;;;;;5053490;28;20048;-78
2024/01/22 11:15:12;;;;;;;18.70;2.20;;;9.50;99.90;;;;;;5086363;28;20048;-81
2024/01/22 11:17:38;;;;;;;22.52;2.50;;;9.60;99.90;;;;;;5070219;28;20040;-80
2024/01/22 11:20:19;;;;;;;18.10;3.00;;;9.60;99.90;;;;;;5054014;28;20036;-80
2024/01/22 11:23:09;;;;;;;29.02;3.47;;;9.70;99.90;;;;;;5069290;28;20100;-84
2024/01/22 11:25:36;;;;;;;38.85;4.95;;;9.80;99.90;;;;;;5048489;28;20052;-82
2024/01/22 11:28:10;;;;;;;22.45;3.83;;;9.80;99.90;;;;;;5051782;28;20033;-81
2024/01/22 11:30:41;;;;;;;30.35;3.95;;;9.80;99.90;;;;;;5072736;28;20352;-82
2024/01/22 11:33:26;;;;;;;30.85;4.95;;;9.80;99.90;;;;;;5057548;28;20033;-80
2024/01/22 11:35:52;;;;;;;35.50;5.07;;;9.70;99.90;;;;;;5070437;28;20043;-80
2024/01/22 11:38:53;;;;;;;35.40;5.32;;;9.70;99.90;;;;;;5071488;28;20482;-80
2024/01/22 11:41:30;;;;;;;31.85;4.63;;;9.70;99.90;;;;;;5070702;28;20035;-81
2024/01/22 11:43:57;;;;;;;31.20;5.32;;;9.80;99.90;;;;;;5055016;28;20337;-83
2024/01/22 11:46:25;;;;;;;32.53;4.93;;;9.80;99.90;;;;;;5057581;28;20487;-82
2024/01/22 11:48:53;;;;;;;32.45;5.03;;;9.80;99.90;;;;;;5090674;28;20303;-81
2024/01/22 11:51:27;;;;;;;32.17;4.47;;;9.80;99.90;;;;;;5074112;28;20489;-82
2024/01/22 11:53:56;;;;;;;33.80;4.20;;;9.90;99.90;;;;;;5056814;28;20032;-80
2024/01/22 11:56:22;;;;;;;32.53;4.57;;;10.00;99.90;;;;;;5072742;28;20491;-83
2024/01/22 11:59:01;;;;;;;32.38;4.95;;;10.00;99.90;;;;;;5106438;27;20493;-82
2024/01/22 12:01:27;;;;;;;28.25;4.13;;;10.10;99.90;;;;;;5070051;28;20032;-83
2024/01/22 12:03:54;;;;;;;41.45;7.63;;;10.10;99.90;;;;;;5069894;28;20046;-85
2024/01/22 12:06:20;;;;;;;26.48;4.80;;;10.20;99.90;;;;;;5069974;28;20047;-81
2024/01/22 12:08:58;;;;;;;26.35;4.00;;;10.20;99.90;;;;;;5071848;28;20493;-83
2024/01/22 12:11:36;;;;;;;29.80;4.28;;;10.20;99.90;;;;;;5086695;28;20032;-83
2024/01/22 12:14:02;;;;;;;31.67;4.85;;;10.20;99.90;;;;;;5105520;27;20419;-81
2024/01/22 12:16:28;;;;;;;31.95;3.70;;;10.20;99.90;;;;;;5070657;28;20055;-85
2024/01/22 12:18:54;;;;;;;22.90;3.35;;;10.20;99.90;;;;;;5071807;28;20047;-82
2024/01/22 12:21:22;;;;;;;29.80;4.25;;;10.10;99.90;;;;;;5068852;28;20032;-80
2024/01/22 12:23:48;;;;;;;30.70;4.45;;;10.10;99.90;;;;;;5084070;28;20029;-82
2024/01/22 12:26:22;;;;;;;38.53;6.18;;;10.10;99.90;;;;;;5067264;28;20036;-82
2024/01/22 12:28:53;;;;;;;32.92;4.28;;;10.20;99.90;;;;;;5050002;28;20029;-82
2024/01/22 12:31:20;;;;;;;32.60;5.60;;;10.20;99.90;;;;;;5083373;28;20032;-82
2024/01/22 12:33:47;;;;;;;43.03;5.85;;;10.30;99.90;;;;;;5068801;28;20029;-83
2024/01/22 12:36:15;;;;;;;28.45;4.07;;;10.30;99.90;;;;;;5049215;28;20050;-82
2024/01/22 12:38:50;;;;;;;35.88;5.57;;;10.30;99.90;;;;;;5067316;28;20048;-82
2024/01/22 12:41:18;;;;;;;35.40;4.25;;;10.50;99.90;;;;;;5071041;28;20036;-79
2024/01/22 12:43:45;;;;;;;35.05;5.13;;;10.50;99.90;;;;;;5053259;28;20040;-82
2024/01/22 12:46:19;;;;;;;46.70;6.03;;;10.50;99.90;;;;;;5051988;28;20040;-81
2024/01/22 12:48:46;;;;;;;39.33;6.03;;;10.40;99.90;;;;;;5069422;28;20390;-80
2024/01/22 12:51:13;;;;;;;32.25;5.07;;;10.30;99.90;;;;;;5072305;28;20446;-83
2024/01/22 12:53:41;;;;;;;27.15;4.50;;;10.20;99.90;;;;;;5072128;28;20031;-83